EGMC/SEN METAR and TAF weather

Enter ICAO airport designator
Station Type Date Time Source
EGMC METAR 2022/11/27 09:50 UTC NOAA

EGMC 270950Z 21008KT 9999 -RA FEW008 11/11 Q1014


Station Type Date Time Source
EGMC Decoded METAR 2022/11/27 09:50 UTC NOAA

Southend-On-Sea , United Kingdom (EGMC) 51-34N 000-42E
Nov 27, 2022 - 04:50 AM EST / 2022.11.27 0950 UTC
Wind: from the SSW (210 degrees) at 9 MPH (8 KT):0
Visibility: greater than 7 mile(s):0
Sky conditions: mostly clear
Weather: light rain
Temperature: 51 F (11 C)
Dew Point: 51 F (11 C)
Relative Humidity: 100%
Pressure (altimeter): 29.94 in. Hg (1014 hPa)
ob: EGMC 270950Z 21008KT 9999 -RA FEW008 11/11 Q1014
cycle: 10

Station Type Date Time Source
EGMC TAF 2016/04/18 18:00 UTC NOAA

TAF EGMC 181658Z 1818/1903 28008KT 9999 BKN045

Example: see airport list